sensor_id;sensor_type;location;lat;lon;timestamp;P1;durP1;ratioP1;P2;durP2;ratioP2
10469;SDS011;5282;47.052;15.458;2023-05-15T00:01:28;8.73;;;8.03;;
10469;SDS011;5282;47.052;15.458;2023-05-15T00:03:55;8.13;;;7.53;;
10469;SDS011;5282;47.052;15.458;2023-05-15T00:06:21;7.30;;;6.87;;
10469;SDS011;5282;47.052;15.458;2023-05-15T00:08:48;6.97;;;6.57;;
10469;SDS011;5282;47.052;15.458;2023-05-15T00:11:16;5.87;;;5.27;;
10469;SDS011;5282;47.052;15.458;2023-05-15T00:13:43;6.20;;;5.90;;
10469;SDS011;5282;47.052;15.458;2023-05-15T00:16:10;5.70;;;5.20;;
10469;SDS011;5282;47.052;15.458;2023-05-15T00:18:37;5.73;;;5.53;;
10469;SDS011;5282;47.052;15.458;2023-05-15T00:21:06;5.87;;;5.57;;
10469;SDS011;5282;47.052;15.458;2023-05-15T00:23:33;6.20;;;5.80;;
10469;SDS011;5282;47.052;15.458;2023-05-15T00:26:00;6.17;;;5.87;;
10469;SDS011;5282;47.052;15.458;2023-05-15T00:28:28;7.07;;;6.73;;
10469;SDS011;5282;47.052;15.458;2023-05-15T00:30:56;7.80;;;7.40;;
10469;SDS011;5282;47.052;15.458;2023-05-15T00:33:23;7.33;;;6.93;;
10469;SDS011;5282;47.052;15.458;2023-05-15T00:35:49;6.93;;;6.53;;
10469;SDS011;5282;47.052;15.458;2023-05-15T00:38:16;7.30;;;6.90;;
10469;SDS011;5282;47.052;15.458;2023-05-15T00:40:43;7.43;;;7.03;;
10469;SDS011;5282;47.052;15.458;2023-05-15T00:43:11;7.60;;;7.00;;
10469;SDS011;5282;47.052;15.458;2023-05-15T00:45:39;7.67;;;7.03;;
10469;SDS011;5282;47.052;15.458;2023-05-15T00:48:08;7.30;;;6.90;;
10469;SDS011;5282;47.052;15.458;2023-05-15T00:50:35;7.23;;;6.73;;
10469;SDS011;5282;47.052;15.458;2023-05-15T00:53:03;7.93;;;7.43;;
10469;SDS011;5282;47.052;15.458;2023-05-15T00:55:31;8.00;;;7.50;;
10469;SDS011;5282;47.052;15.458;2023-05-15T00:57:59;6.93;;;6.63;;
10469;SDS011;5282;47.052;15.458;2023-05-15T01:00:26;6.83;;;6.33;;
10469;SDS011;5282;47.052;15.458;2023-05-15T01:02:55;6.57;;;6.27;;
10469;SDS011;5282;47.052;15.458;2023-05-15T01:05:22;6.40;;;6.10;;
10469;SDS011;5282;47.052;15.458;2023-05-15T01:07:51;5.57;;;5.20;;
10469;SDS011;5282;47.052;15.458;2023-05-15T01:10:22;5.50;;;5.30;;
10469;SDS011;5282;47.052;15.458;2023-05-15T01:12:49;5.90;;;5.50;;
10469;SDS011;5282;47.052;15.458;2023-05-15T01:15:22;6.67;;;6.37;;
10469;SDS011;5282;47.052;15.458;2023-05-15T01:17:49;6.63;;;6.20;;
10469;SDS011;5282;47.052;15.458;2023-05-15T01:20:18;5.50;;;5.30;;
10469;SDS011;5282;47.052;15.458;2023-05-15T01:22:51;7.17;;;6.77;;
10469;SDS011;5282;47.052;15.458;2023-05-15T01:25:37;6.93;;;6.40;;
10469;SDS011;5282;47.052;15.458;2023-05-15T01:28:24;6.77;;;6.37;;
10469;SDS011;5282;47.052;15.458;2023-05-15T01:30:54;7.20;;;6.80;;
10469;SDS011;5282;47.052;15.458;2023-05-15T01:33:24;6.47;;;6.17;;
10469;SDS011;5282;47.052;15.458;2023-05-15T01:35:55;5.53;;;5.30;;
10469;SDS011;5282;47.052;15.458;2023-05-15T01:38:29;5.17;;;4.87;;
10469;SDS011;5282;47.052;15.458;2023-05-15T01:41:05;4.73;;;4.53;;
10469;SDS011;5282;47.052;15.458;2023-05-15T01:43:38;4.77;;;4.50;;
10469;SDS011;5282;47.052;15.458;2023-05-15T01:46:10;5.77;;;5.47;;
10469;SDS011;5282;47.052;15.458;2023-05-15T01:48:41;4.60;;;4.50;;
10469;SDS011;5282;47.052;15.458;2023-05-15T01:51:11;4.73;;;4.53;;
10469;SDS011;5282;47.052;15.458;2023-05-15T01:53:40;4.67;;;4.47;;
10469;SDS011;5282;47.052;15.458;2023-05-15T01:56:11;4.53;;;4.43;;
10469;SDS011;5282;47.052;15.458;2023-05-15T01:58:41;4.70;;;4.50;;
10469;SDS011;5282;47.052;15.458;2023-05-15T02:01:09;5.07;;;4.87;;
10469;SDS011;5282;47.052;15.458;2023-05-15T02:03:36;5.87;;;5.37;;
10469;SDS011;5282;47.052;15.458;2023-05-15T02:06:03;5.67;;;5.37;;
10469;SDS011;5282;47.052;15.458;2023-05-15T02:08:32;5.63;;;5.43;;
10469;SDS011;5282;47.052;15.458;2023-05-15T02:11:00;6.60;;;6.30;;
10469;SDS011;5282;47.052;15.458;2023-05-15T02:13:29;7.00;;;6.33;;
10469;SDS011;5282;47.052;15.458;2023-05-15T02:15:59;7.40;;;7.00;;
10469;SDS011;5282;47.052;15.458;2023-05-15T02:18:27;7.50;;;7.13;;
10469;SDS011;5282;47.052;15.458;2023-05-15T02:20:54;7.40;;;6.90;;
10469;SDS011;5282;47.052;15.458;2023-05-15T02:23:21;7.40;;;7.00;;
10469;SDS011;5282;47.052;15.458;2023-05-15T02:25:49;6.83;;;6.47;;
10469;SDS011;5282;47.052;15.458;2023-05-15T02:28:27;6.90;;;6.60;;
10469;SDS011;5282;47.052;15.458;2023-05-15T02:31:04;7.60;;;7.00;;
10469;SDS011;5282;47.052;15.458;2023-05-15T02:33:40;7.40;;;6.90;;
10469;SDS011;5282;47.052;15.458;2023-05-15T02:36:15;8.00;;;7.40;;
10469;SDS011;5282;47.052;15.458;2023-05-15T02:38:48;7.20;;;6.60;;
10469;SDS011;5282;47.052;15.458;2023-05-15T02:41:17;6.53;;;6.20;;
10469;SDS011;5282;47.052;15.458;2023-05-15T02:43:45;6.90;;;6.60;;
10469;SDS011;5282;47.052;15.458;2023-05-15T02:46:16;7.33;;;6.83;;
10469;SDS011;5282;47.052;15.458;2023-05-15T02:48:44;7.17;;;6.77;;
10469;SDS011;5282;47.052;15.458;2023-05-15T02:51:12;10.50;;;7.80;;
10469;SDS011;5282;47.052;15.458;2023-05-15T02:53:40;13.83;;;8.00;;
10469;SDS011;5282;47.052;15.458;2023-05-15T02:56:08;16.63;;;6.97;;
10469;SDS011;5282;47.052;15.458;2023-05-15T02:58:34;7.83;;;7.43;;
10469;SDS011;5282;47.052;15.458;2023-05-15T03:01:02;8.13;;;7.33;;
10469;SDS011;5282;47.052;15.458;2023-05-15T03:03:30;15.90;;;7.43;;
10469;SDS011;5282;47.052;15.458;2023-05-15T03:05:58;7.80;;;7.10;;
10469;SDS011;5282;47.052;15.458;2023-05-15T03:08:25;8.33;;;7.13;;
10469;SDS011;5282;47.052;15.458;2023-05-15T03:10:54;37.43;;;7.83;;
10469;SDS011;5282;47.052;15.458;2023-05-15T03:13:21;58.20;;;7.10;;
10469;SDS011;5282;47.052;15.458;2023-05-15T03:15:48;10.23;;;6.50;;
10469;SDS011;5282;47.052;15.458;2023-05-15T03:18:15;14.60;;;7.57;;
10469;SDS011;5282;47.052;15.458;2023-05-15T03:20:45;8.93;;;7.23;;
10469;SDS011;5282;47.052;15.458;2023-05-15T03:23:13;11.07;;;7.57;;
10469;SDS011;5282;47.052;15.458;2023-05-15T03:25:40;10.90;;;7.53;;
10469;SDS011;5282;47.052;15.458;2023-05-15T03:28:07;13.93;;;6.27;;
10469;SDS011;5282;47.052;15.458;2023-05-15T03:30:34;24.23;;;7.30;;
10469;SDS011;5282;47.052;15.458;2023-05-15T03:33:01;22.43;;;7.70;;
10469;SDS011;5282;47.052;15.458;2023-05-15T03:35:28;10.73;;;8.00;;
10469;SDS011;5282;47.052;15.458;2023-05-15T03:37:57;27.80;;;8.67;;
10469;SDS011;5282;47.052;15.458;2023-05-15T03:40:24;8.03;;;7.43;;
10469;SDS011;5282;47.052;15.458;2023-05-15T03:42:51;9.53;;;7.77;;
10469;SDS011;5282;47.052;15.458;2023-05-15T03:45:20;7.07;;;6.57;;
10469;SDS011;5282;47.052;15.458;2023-05-15T03:47:48;7.97;;;7.47;;
10469;SDS011;5282;47.052;15.458;2023-05-15T03:50:15;8.33;;;7.93;;
10469;SDS011;5282;47.052;15.458;2023-05-15T03:52:42;8.63;;;8.03;;
10469;SDS011;5282;47.052;15.458;2023-05-15T03:55:10;8.43;;;7.93;;
10469;SDS011;5282;47.052;15.458;2023-05-15T03:57:37;8.00;;;7.40;;
10469;SDS011;5282;47.052;15.458;2023-05-15T04:00:06;8.00;;;7.60;;
10469;SDS011;5282;47.052;15.458;2023-05-15T04:02:35;8.63;;;8.13;;
10469;SDS011;5282;47.052;15.458;2023-05-15T04:05:05;8.17;;;7.67;;
10469;SDS011;5282;47.052;15.458;2023-05-15T04:07:33;8.07;;;7.67;;
10469;SDS011;5282;47.052;15.458;2023-05-15T04:10:03;8.30;;;7.90;;
10469;SDS011;5282;47.052;15.458;2023-05-15T04:12:33;9.23;;;8.53;;
10469;SDS011;5282;47.052;15.458;2023-05-15T04:15:12;8.60;;;8.10;;
10469;SDS011;5282;47.052;15.458;2023-05-15T04:17:40;8.43;;;7.93;;
10469;SDS011;5282;47.052;15.458;2023-05-15T04:20:07;8.97;;;8.27;;
10469;SDS011;5282;47.052;15.458;2023-05-15T04:22:35;8.90;;;8.20;;
10469;SDS011;5282;47.052;15.458;2023-05-15T04:25:02;9.13;;;8.53;;
10469;SDS011;5282;47.052;15.458;2023-05-15T04:27:30;9.03;;;8.27;;
10469;SDS011;5282;47.052;15.458;2023-05-15T04:29:58;8.40;;;7.80;;
10469;SDS011;5282;47.052;15.458;2023-05-15T04:32:26;8.07;;;7.57;;
10469;SDS011;5282;47.052;15.458;2023-05-15T04:34:52;8.60;;;8.10;;
10469;SDS011;5282;47.052;15.458;2023-05-15T04:37:20;8.30;;;7.70;;
10469;SDS011;5282;47.052;15.458;2023-05-15T04:39:47;8.20;;;7.70;;
10469;SDS011;5282;47.052;15.458;2023-05-15T04:42:14;8.40;;;7.77;;
10469;SDS011;5282;47.052;15.458;2023-05-15T04:44:41;8.20;;;7.70;;
10469;SDS011;5282;47.052;15.458;2023-05-15T04:47:10;8.27;;;7.57;;
10469;SDS011;5282;47.052;15.458;2023-05-15T04:49:37;8.27;;;7.77;;
10469;SDS011;5282;47.052;15.458;2023-05-15T04:52:04;8.43;;;7.77;;
10469;SDS011;5282;47.052;15.458;2023-05-15T04:54:31;7.97;;;7.47;;
10469;SDS011;5282;47.052;15.458;2023-05-15T04:56:58;8.50;;;8.00;;
10469;SDS011;5282;47.052;15.458;2023-05-15T04:59:26;8.27;;;7.83;;
10469;SDS011;5282;47.052;15.458;2023-05-15T05:01:54;8.27;;;7.73;;
10469;SDS011;5282;47.052;15.458;2023-05-15T05:04:22;7.17;;;6.83;;
10469;SDS011;5282;47.052;15.458;2023-05-15T05:06:49;8.10;;;7.50;;
10469;SDS011;5282;47.052;15.458;2023-05-15T05:09:17;8.17;;;7.67;;
10469;SDS011;5282;47.052;15.458;2023-05-15T05:11:44;7.83;;;7.40;;
10469;SDS011;5282;47.052;15.458;2023-05-15T05:14:12;7.77;;;7.27;;
10469;SDS011;5282;47.052;15.458;2023-05-15T05:16:40;7.60;;;7.10;;
10469;SDS011;5282;47.052;15.458;2023-05-15T05:19:07;7.27;;;6.87;;
10469;SDS011;5282;47.052;15.458;2023-05-15T05:21:35;7.00;;;6.60;;
10469;SDS011;5282;47.052;15.458;2023-05-15T05:24:02;6.40;;;6.00;;
10469;SDS011;5282;47.052;15.458;2023-05-15T05:26:29;6.73;;;6.10;;
10469;SDS011;5282;47.052;15.458;2023-05-15T05:28:56;6.13;;;5.83;;
10469;SDS011;5282;47.052;15.458;2023-05-15T05:31:23;5.90;;;5.60;;
10469;SDS011;5282;47.052;15.458;2023-05-15T05:33:50;5.60;;;5.30;;
10469;SDS011;5282;47.052;15.458;2023-05-15T05:36:17;5.30;;;4.90;;
10469;SDS011;5282;47.052;15.458;2023-05-15T05:38:45;4.20;;;4.10;;
10469;SDS011;5282;47.052;15.458;2023-05-15T05:41:12;5.03;;;4.73;;
10469;SDS011;5282;47.052;15.458;2023-05-15T05:43:39;4.77;;;4.57;;
10469;SDS011;5282;47.052;15.458;2023-05-15T05:46:06;4.00;;;3.70;;
10469;SDS011;5282;47.052;15.458;2023-05-15T05:48:32;3.80;;;3.60;;
10469;SDS011;5282;47.052;15.458;2023-05-15T05:50:59;3.60;;;3.50;;
10469;SDS011;5282;47.052;15.458;2023-05-15T05:53:26;3.50;;;3.40;;
10469;SDS011;5282;47.052;15.458;2023-05-15T05:55:54;3.20;;;3.10;;
10469;SDS011;5282;47.052;15.458;2023-05-15T05:58:21;3.30;;;3.20;;
10469;SDS011;5282;47.052;15.458;2023-05-15T06:00:49;3.60;;;3.50;;
10469;SDS011;5282;47.052;15.458;2023-05-15T06:03:15;3.73;;;3.60;;
10469;SDS011;5282;47.052;15.458;2023-05-15T06:05:43;3.70;;;3.60;;
10469;SDS011;5282;47.052;15.458;2023-05-15T06:08:10;3.53;;;3.33;;
10469;SDS011;5282;47.052;15.458;2023-05-15T06:10:37;3.77;;;3.60;;
10469;SDS011;5282;47.052;15.458;2023-05-15T06:13:05;4.70;;;4.50;;
10469;SDS011;5282;47.052;15.458;2023-05-15T06:15:32;4.50;;;4.30;;
10469;SDS011;5282;47.052;15.458;2023-05-15T06:17:59;4.50;;;4.30;;
10469;SDS011;5282;47.052;15.458;2023-05-15T06:20:26;5.97;;;5.70;;
10469;SDS011;5282;47.052;15.458;2023-05-15T06:22:52;6.80;;;6.50;;
10469;SDS011;5282;47.052;15.458;2023-05-15T06:25:19;6.80;;;6.40;;
10469;SDS011;5282;47.052;15.458;2023-05-15T06:27:46;6.03;;;5.57;;
10469;SDS011;5282;47.052;15.458;2023-05-15T06:30:15;7.47;;;6.97;;
10469;SDS011;5282;47.052;15.458;2023-05-15T06:32:42;7.77;;;7.10;;
10469;SDS011;5282;47.052;15.458;2023-05-15T06:35:09;8.40;;;7.90;;
10469;SDS011;5282;47.052;15.458;2023-05-15T06:37:38;7.60;;;7.10;;
10469;SDS011;5282;47.052;15.458;2023-05-15T06:40:06;7.57;;;7.17;;
10469;SDS011;5282;47.052;15.458;2023-05-15T06:42:33;7.97;;;7.20;;
10469;SDS011;5282;47.052;15.458;2023-05-15T06:45:00;7.43;;;7.03;;
10469;SDS011;5282;47.052;15.458;2023-05-15T06:47:28;8.23;;;7.63;;
10469;SDS011;5282;47.052;15.458;2023-05-15T06:49:55;8.87;;;8.37;;
10469;SDS011;5282;47.052;15.458;2023-05-15T06:52:22;8.37;;;7.77;;
10469;SDS011;5282;47.052;15.458;2023-05-15T06:54:49;7.97;;;7.57;;
10469;SDS011;5282;47.052;15.458;2023-05-15T06:57:16;8.60;;;7.83;;
10469;SDS011;5282;47.052;15.458;2023-05-15T06:59:43;7.57;;;7.10;;
10469;SDS011;5282;47.052;15.458;2023-05-15T07:02:10;7.53;;;6.93;;
10469;SDS011;5282;47.052;15.458;2023-05-15T07:04:38;7.47;;;6.87;;
10469;SDS011;5282;47.052;15.458;2023-05-15T07:07:05;7.47;;;6.97;;
10469;SDS011;5282;47.052;15.458;2023-05-15T07:09:32;7.57;;;6.97;;
10469;SDS011;5282;47.052;15.458;2023-05-15T07:11:59;6.10;;;5.80;;
10469;SDS011;5282;47.052;15.458;2023-05-15T07:14:26;5.70;;;5.40;;
10469;SDS011;5282;47.052;15.458;2023-05-15T07:16:53;6.47;;;6.07;;
10469;SDS011;5282;47.052;15.458;2023-05-15T07:19:20;6.37;;;5.97;;
10469;SDS011;5282;47.052;15.458;2023-05-15T07:21:48;5.90;;;5.30;;
10469;SDS011;5282;47.052;15.458;2023-05-15T07:24:15;6.17;;;5.73;;
10469;SDS011;5282;47.052;15.458;2023-05-15T07:26:42;3.80;;;3.50;;
10469;SDS011;5282;47.052;15.458;2023-05-15T07:29:11;3.77;;;3.60;;
10469;SDS011;5282;47.052;15.458;2023-05-15T07:31:38;4.17;;;3.97;;
10469;SDS011;5282;47.052;15.458;2023-05-15T07:34:06;4.53;;;4.23;;
10469;SDS011;5282;47.052;15.458;2023-05-15T07:36:33;5.20;;;4.80;;
10469;SDS011;5282;47.052;15.458;2023-05-15T07:39:01;5.57;;;5.10;;
10469;SDS011;5282;47.052;15.458;2023-05-15T07:41:28;4.80;;;4.50;;
10469;SDS011;5282;47.052;15.458;2023-05-15T07:43:57;4.50;;;4.30;;
10469;SDS011;5282;47.052;15.458;2023-05-15T07:46:24;4.60;;;4.40;;
10469;SDS011;5282;47.052;15.458;2023-05-15T07:48:51;4.27;;;3.97;;
10469;SDS011;5282;47.052;15.458;2023-05-15T07:51:18;4.40;;;4.20;;
10469;SDS011;5282;47.052;15.458;2023-05-15T07:53:44;3.10;;;3.00;;
10469;SDS011;5282;47.052;15.458;2023-05-15T07:56:13;3.07;;;2.97;;
10469;SDS011;5282;47.052;15.458;2023-05-15T07:58:39;3.57;;;3.27;;
10469;SDS011;5282;47.052;15.458;2023-05-15T08:01:07;4.53;;;3.73;;
10469;SDS011;5282;47.052;15.458;2023-05-15T08:03:34;4.50;;;4.20;;
10469;SDS011;5282;47.052;15.458;2023-05-15T08:06:01;4.17;;;3.97;;
10469;SDS011;5282;47.052;15.458;2023-05-15T08:08:30;3.47;;;3.27;;
10469;SDS011;5282;47.052;15.458;2023-05-15T08:10:57;3.87;;;3.77;;
10469;SDS011;5282;47.052;15.458;2023-05-15T08:13:25;3.70;;;3.60;;
10469;SDS011;5282;47.052;15.458;2023-05-15T08:15:52;3.53;;;3.43;;
10469;SDS011;5282;47.052;15.458;2023-05-15T08:18:19;3.40;;;3.30;;
10469;SDS011;5282;47.052;15.458;2023-05-15T08:20:46;3.00;;;2.90;;
10469;SDS011;5282;47.052;15.458;2023-05-15T08:23:15;3.00;;;2.90;;
10469;SDS011;5282;47.052;15.458;2023-05-15T08:25:42;2.87;;;2.77;;
10469;SDS011;5282;47.052;15.458;2023-05-15T08:28:09;4.40;;;3.90;;
10469;SDS011;5282;47.052;15.458;2023-05-15T08:30:37;3.30;;;3.20;;
10469;SDS011;5282;47.052;15.458;2023-05-15T08:33:04;2.77;;;2.67;;
10469;SDS011;5282;47.052;15.458;2023-05-15T08:35:31;2.90;;;2.80;;
10469;SDS011;5282;47.052;15.458;2023-05-15T08:37:58;2.30;;;2.20;;
10469;SDS011;5282;47.052;15.458;2023-05-15T08:40:24;2.37;;;2.27;;
10469;SDS011;5282;47.052;15.458;2023-05-15T08:42:54;2.30;;;2.20;;
10469;SDS011;5282;47.052;15.458;2023-05-15T08:45:22;2.63;;;2.30;;
10469;SDS011;5282;47.052;15.458;2023-05-15T08:47:51;2.47;;;2.40;;
10469;SDS011;5282;47.052;15.458;2023-05-15T08:50:19;1.97;;;1.97;;
10469;SDS011;5282;47.052;15.458;2023-05-15T08:52:48;2.33;;;2.13;;
10469;SDS011;5282;47.052;15.458;2023-05-15T08:55:15;1.90;;;1.90;;
10469;SDS011;5282;47.052;15.458;2023-05-15T08:57:43;2.47;;;2.37;;
10469;SDS011;5282;47.052;15.458;2023-05-15T09:00:11;2.20;;;2.10;;
10469;SDS011;5282;47.052;15.458;2023-05-15T09:02:40;2.20;;;2.00;;
10469;SDS011;5282;47.052;15.458;2023-05-15T09:05:08;2.70;;;1.77;;
10469;SDS011;5282;47.052;15.458;2023-05-15T09:07:36;1.10;;;1.10;;
10469;SDS011;5282;47.052;15.458;2023-05-15T09:10:04;0.67;;;0.67;;
10469;SDS011;5282;47.052;15.458;2023-05-15T09:12:32;0.40;;;0.40;;
10469;SDS011;5282;47.052;15.458;2023-05-15T09:15:09;0.77;;;0.30;;
10469;SDS011;5282;47.052;15.458;2023-05-15T09:17:38;0.20;;;0.20;;
10469;SDS011;5282;47.052;15.458;2023-05-15T09:20:23;0.20;;;0.20;;
10469;SDS011;5282;47.052;15.458;2023-05-15T09:22:53;0.20;;;0.20;;
10469;SDS011;5282;47.052;15.458;2023-05-15T09:25:35;0.30;;;0.30;;
10469;SDS011;5282;47.052;15.458;2023-05-15T09:28:07;0.20;;;0.20;;
10469;SDS011;5282;47.052;15.458;2023-05-15T09:30:36;0.20;;;0.20;;
10469;SDS011;5282;47.052;15.458;2023-05-15T09:33:03;0.10;;;0.10;;
10469;SDS011;5282;47.052;15.458;2023-05-15T09:35:31;0.30;;;0.30;;
10469;SDS011;5282;47.052;15.458;2023-05-15T09:38:00;0.20;;;0.20;;
10469;SDS011;5282;47.052;15.458;2023-05-15T09:40:29;0.30;;;0.20;;
10469;SDS011;5282;47.052;15.458;2023-05-15T09:42:57;0.23;;;0.23;;
10469;SDS011;5282;47.052;15.458;2023-05-15T09:45:24;0.20;;;0.20;;
10469;SDS011;5282;47.052;15.458;2023-05-15T09:47:54;0.10;;;0.10;;
10469;SDS011;5282;47.052;15.458;2023-05-15T09:50:21;1.50;;;0.70;;
10469;SDS011;5282;47.052;15.458;2023-05-15T09:52:50;1.00;;;1.00;;
10469;SDS011;5282;47.052;15.458;2023-05-15T09:55:18;0.90;;;0.90;;
10469;SDS011;5282;47.052;15.458;2023-05-15T10:00:32;0.80;;;0.80;;
10469;SDS011;5282;47.052;15.458;2023-05-15T10:03:00;0.70;;;0.70;;
10469;SDS011;5282;47.052;15.458;2023-05-15T10:05:27;0.20;;;0.20;;
10469;SDS011;5282;47.052;15.458;2023-05-15T10:07:56;0.57;;;0.57;;
10469;SDS011;5282;47.052;15.458;2023-05-15T10:10:24;0.60;;;0.60;;
10469;SDS011;5282;47.052;15.458;2023-05-15T10:12:52;0.60;;;0.60;;
10469;SDS011;5282;47.052;15.458;2023-05-15T10:15:20;0.87;;;0.80;;
10469;SDS011;5282;47.052;15.458;2023-05-15T10:17:48;0.60;;;0.60;;
10469;SDS011;5282;47.052;15.458;2023-05-15T10:20:16;0.70;;;0.70;;
10469;SDS011;5282;47.052;15.458;2023-05-15T10:22:44;0.40;;;0.30;;
10469;SDS011;5282;47.052;15.458;2023-05-15T10:25:14;0.20;;;0.20;;
10469;SDS011;5282;47.052;15.458;2023-05-15T10:27:43;0.20;;;0.20;;
10469;SDS011;5282;47.052;15.458;2023-05-15T10:30:12;0.30;;;0.20;;
10469;SDS011;5282;47.052;15.458;2023-05-15T10:32:41;0.10;;;0.10;;
10469;SDS011;5282;47.052;15.458;2023-05-15T10:35:09;0.10;;;0.10;;
10469;SDS011;5282;47.052;15.458;2023-05-15T10:37:37;0.10;;;0.10;;
10469;SDS011;5282;47.052;15.458;2023-05-15T10:40:06;0.10;;;0.10;;
10469;SDS011;5282;47.052;15.458;2023-05-15T10:42:36;0.10;;;0.10;;
10469;SDS011;5282;47.052;15.458;2023-05-15T10:45:04;0.63;;;0.10;;
10469;SDS011;5282;47.052;15.458;2023-05-15T10:47:34;0.20;;;0.20;;
10469;SDS011;5282;47.052;15.458;2023-05-15T10:50:02;0.47;;;0.20;;
10469;SDS011;5282;47.052;15.458;2023-05-15T10:52:31;0.20;;;0.20;;
10469;SDS011;5282;47.052;15.458;2023-05-15T10:54:58;0.10;;;0.10;;
10469;SDS011;5282;47.052;15.458;2023-05-15T10:57:27;0.10;;;0.10;;
10469;SDS011;5282;47.052;15.458;2023-05-15T10:59:56;0.20;;;0.20;;
10469;SDS011;5282;47.052;15.458;2023-05-15T11:02:25;0.10;;;0.10;;
10469;SDS011;5282;47.052;15.458;2023-05-15T11:04:55;0.37;;;0.37;;
10469;SDS011;5282;47.052;15.458;2023-05-15T11:07:23;0.10;;;0.10;;
10469;SDS011;5282;47.052;15.458;2023-05-15T11:09:51;0.10;;;0.10;;
10469;SDS011;5282;47.052;15.458;2023-05-15T11:12:18;0.10;;;0.10;;
10469;SDS011;5282;47.052;15.458;2023-05-15T11:18:02;0.77;;;0.10;;
10469;SDS011;5282;47.052;15.458;2023-05-15T11:20:31;0.20;;;0.20;;
10469;SDS011;5282;47.052;15.458;2023-05-15T11:22:59;0.10;;;0.10;;
10469;SDS011;5282;47.052;15.458;2023-05-15T11:25:27;0.60;;;0.20;;
10469;SDS011;5282;47.052;15.458;2023-05-15T11:27:55;2.93;;;0.30;;
10469;SDS011;5282;47.052;15.458;2023-05-15T11:30:35;0.73;;;0.10;;
10469;SDS011;5282;47.052;15.458;2023-05-15T11:33:04;0.27;;;0.27;;
10469;SDS011;5282;47.052;15.458;2023-05-15T11:35:34;0.27;;;0.27;;
10469;SDS011;5282;47.052;15.458;2023-05-15T11:38:10;0.20;;;0.20;;
10469;SDS011;5282;47.052;15.458;2023-05-15T11:40:44;0.07;;;0.07;;
10469;SDS011;5282;47.052;15.458;2023-05-15T11:43:15;0.20;;;0.20;;
10469;SDS011;5282;47.052;15.458;2023-05-15T11:45:46;0.50;;;0.30;;
10469;SDS011;5282;47.052;15.458;2023-05-15T11:48:14;0.57;;;0.17;;
10469;SDS011;5282;47.052;15.458;2023-05-15T11:50:42;0.10;;;0.10;;
10469;SDS011;5282;47.052;15.458;2023-05-15T11:53:11;0.50;;;0.10;;
10469;SDS011;5282;47.052;15.458;2023-05-15T11:55:39;0.10;;;0.10;;
10469;SDS011;5282;47.052;15.458;2023-05-15T11:58:09;0.20;;;0.20;;
10469;SDS011;5282;47.052;15.458;2023-05-15T12:00:38;0.30;;;0.30;;
10469;SDS011;5282;47.052;15.458;2023-05-15T12:03:06;0.20;;;0.20;;
10469;SDS011;5282;47.052;15.458;2023-05-15T12:05:39;0.30;;;0.30;;
10469;SDS011;5282;47.052;15.458;2023-05-15T12:08:08;0.20;;;0.20;;
10469;SDS011;5282;47.052;15.458;2023-05-15T12:10:38;0.13;;;0.13;;
10469;SDS011;5282;47.052;15.458;2023-05-15T12:13:06;0.10;;;0.10;;
10469;SDS011;5282;47.052;15.458;2023-05-15T12:15:35;0.10;;;0.10;;
10469;SDS011;5282;47.052;15.458;2023-05-15T12:18:03;0.32;;;0.17;;
10469;SDS011;5282;47.052;15.458;2023-05-15T12:20:33;1.50;;;1.40;;
10469;SDS011;5282;47.052;15.458;2023-05-15T12:23:01;0.20;;;0.20;;
10469;SDS011;5282;47.052;15.458;2023-05-15T12:25:29;0.10;;;0.10;;
10469;SDS011;5282;47.052;15.458;2023-05-15T12:27:57;0.20;;;0.20;;
10469;SDS011;5282;47.052;15.458;2023-05-15T12:30:25;1.50;;;0.07;;
10469;SDS011;5282;47.052;15.458;2023-05-15T12:32:52;0.10;;;0.10;;
10469;SDS011;5282;47.052;15.458;2023-05-15T12:35:22;0.10;;;0.10;;
10469;SDS011;5282;47.052;15.458;2023-05-15T12:37:50;0.20;;;0.20;;
10469;SDS011;5282;47.052;15.458;2023-05-15T12:40:18;0.38;;;0.22;;
10469;SDS011;5282;47.052;15.458;2023-05-15T12:42:49;0.10;;;0.10;;
10469;SDS011;5282;47.052;15.458;2023-05-15T12:45:18;0.73;;;0.10;;
10469;SDS011;5282;47.052;15.458;2023-05-15T12:47:46;0.10;;;0.10;;
10469;SDS011;5282;47.052;15.458;2023-05-15T12:50:16;0.20;;;0.20;;
10469;SDS011;5282;47.052;15.458;2023-05-15T12:52:49;0.10;;;0.10;;
10469;SDS011;5282;47.052;15.458;2023-05-15T12:55:21;0.20;;;0.20;;
10469;SDS011;5282;47.052;15.458;2023-05-15T12:57:50;0.10;;;0.10;;
10469;SDS011;5282;47.052;15.458;2023-05-15T13:00:17;0.10;;;0.10;;
10469;SDS011;5282;47.052;15.458;2023-05-15T13:02:47;0.20;;;0.20;;
10469;SDS011;5282;47.052;15.458;2023-05-15T13:05:14;0.10;;;0.10;;
10469;SDS011;5282;47.052;15.458;2023-05-15T13:07:42;0.10;;;0.10;;
10469;SDS011;5282;47.052;15.458;2023-05-15T13:10:11;0.47;;;0.10;;
10469;SDS011;5282;47.052;15.458;2023-05-15T13:12:40;0.10;;;0.10;;
10469;SDS011;5282;47.052;15.458;2023-05-15T13:15:20;0.20;;;0.20;;
10469;SDS011;5282;47.052;15.458;2023-05-15T13:17:57;0.00;;;0.00;;
10469;SDS011;5282;47.052;15.458;2023-05-15T13:20:26;0.10;;;0.10;;
10469;SDS011;5282;47.052;15.458;2023-05-15T13:22:53;0.20;;;0.20;;
10469;SDS011;5282;47.052;15.458;2023-05-15T13:25:24;0.20;;;0.20;;
10469;SDS011;5282;47.052;15.458;2023-05-15T13:27:51;0.10;;;0.10;;
10469;SDS011;5282;47.052;15.458;2023-05-15T13:30:18;0.10;;;0.10;;
10469;SDS011;5282;47.052;15.458;2023-05-15T13:32:45;0.10;;;0.10;;
10469;SDS011;5282;47.052;15.458;2023-05-15T13:35:13;0.10;;;0.10;;
10469;SDS011;5282;47.052;15.458;2023-05-15T13:37:39;0.15;;;0.15;;
10469;SDS011;5282;47.052;15.458;2023-05-15T13:40:08;0.10;;;0.10;;
10469;SDS011;5282;47.052;15.458;2023-05-15T13:42:37;0.20;;;0.20;;
10469;SDS011;5282;47.052;15.458;2023-05-15T13:45:05;0.20;;;0.20;;
10469;SDS011;5282;47.052;15.458;2023-05-15T13:47:33;0.10;;;0.10;;
10469;SDS011;5282;47.052;15.458;2023-05-15T13:50:00;0.00;;;0.00;;
10469;SDS011;5282;47.052;15.458;2023-05-15T13:52:27;0.35;;;0.20;;
10469;SDS011;5282;47.052;15.458;2023-05-15T13:54:54;0.20;;;0.20;;
10469;SDS011;5282;47.052;15.458;2023-05-15T13:57:21;0.73;;;0.27;;
10469;SDS011;5282;47.052;15.458;2023-05-15T13:59:49;0.20;;;0.20;;
10469;SDS011;5282;47.052;15.458;2023-05-15T14:02:16;0.30;;;0.30;;
10469;SDS011;5282;47.052;15.458;2023-05-15T14:04:45;0.20;;;0.20;;
10469;SDS011;5282;47.052;15.458;2023-05-15T14:07:12;0.20;;;0.20;;
10469;SDS011;5282;47.052;15.458;2023-05-15T14:09:39;0.70;;;0.30;;
10469;SDS011;5282;47.052;15.458;2023-05-15T14:12:06;0.30;;;0.30;;
10469;SDS011;5282;47.052;15.458;2023-05-15T14:14:33;0.20;;;0.20;;
10469;SDS011;5282;47.052;15.458;2023-05-15T14:17:02;0.20;;;0.20;;
10469;SDS011;5282;47.052;15.458;2023-05-15T14:19:29;0.20;;;0.20;;
10469;SDS011;5282;47.052;15.458;2023-05-15T14:21:56;0.20;;;0.20;;
10469;SDS011;5282;47.052;15.458;2023-05-15T14:24:23;0.10;;;0.10;;
10469;SDS011;5282;47.052;15.458;2023-05-15T14:26:50;0.13;;;0.13;;
10469;SDS011;5282;47.052;15.458;2023-05-15T14:29:17;0.30;;;0.30;;
10469;SDS011;5282;47.052;15.458;2023-05-15T14:31:43;0.27;;;0.27;;
10469;SDS011;5282;47.052;15.458;2023-05-15T14:34:12;0.30;;;0.30;;
10469;SDS011;5282;47.052;15.458;2023-05-15T14:36:39;0.77;;;0.20;;
10469;SDS011;5282;47.052;15.458;2023-05-15T14:39:05;0.30;;;0.30;;
10469;SDS011;5282;47.052;15.458;2023-05-15T14:41:32;0.30;;;0.30;;
10469;SDS011;5282;47.052;15.458;2023-05-15T14:43:59;0.90;;;0.17;;
10469;SDS011;5282;47.052;15.458;2023-05-15T14:46:26;0.87;;;0.47;;
10469;SDS011;5282;47.052;15.458;2023-05-15T14:48:53;0.20;;;0.20;;
10469;SDS011;5282;47.052;15.458;2023-05-15T14:51:21;0.30;;;0.30;;
10469;SDS011;5282;47.052;15.458;2023-05-15T14:53:48;0.53;;;0.20;;
10469;SDS011;5282;47.052;15.458;2023-05-15T14:56:15;0.50;;;0.50;;
10469;SDS011;5282;47.052;15.458;2023-05-15T14:58:42;0.20;;;0.20;;
10469;SDS011;5282;47.052;15.458;2023-05-15T15:01:09;0.40;;;0.40;;